sensor_id;sensor_type;location;lat;lon;timestamp;temperature;humidity
42037;DHT22;30340;52.004;5.908;2023-04-24T00:00:54;11.20;91.30
42037;DHT22;30340;52.004;5.908;2023-04-24T00:03:24;11.30;91.30
42037;DHT22;30340;52.004;5.908;2023-04-24T00:05:49;11.30;91.20
42037;DHT22;30340;52.004;5.908;2023-04-24T00:08:16;11.20;91.30
42037;DHT22;30340;52.004;5.908;2023-04-24T00:10:42;11.20;91.30
42037;DHT22;30340;52.004;5.908;2023-04-24T00:13:08;11.20;91.30
42037;DHT22;30340;52.004;5.908;2023-04-24T00:15:33;11.20;91.40
42037;DHT22;30340;52.004;5.908;2023-04-24T00:17:59;11.20;91.50
42037;DHT22;30340;52.004;5.908;2023-04-24T00:20:26;11.20;91.50
42037;DHT22;30340;52.004;5.908;2023-04-24T00:22:53;11.20;91.50
42037;DHT22;30340;52.004;5.908;2023-04-24T00:25:19;11.20;91.50
42037;DHT22;30340;52.004;5.908;2023-04-24T00:27:44;11.20;91.50
42037;DHT22;30340;52.004;5.908;2023-04-24T00:30:10;11.30;91.50
42037;DHT22;30340;52.004;5.908;2023-04-24T00:32:35;11.20;91.50
42037;DHT22;30340;52.004;5.908;2023-04-24T00:35:01;11.20;91.50
42037;DHT22;30340;52.004;5.908;2023-04-24T00:37:27;11.20;91.60
42037;DHT22;30340;52.004;5.908;2023-04-24T00:39:52;11.20;91.60
42037;DHT22;30340;52.004;5.908;2023-04-24T00:42:18;11.20;91.60
42037;DHT22;30340;52.004;5.908;2023-04-24T00:44:43;11.20;91.50
42037;DHT22;30340;52.004;5.908;2023-04-24T00:47:09;11.20;91.50
42037;DHT22;30340;52.004;5.908;2023-04-24T00:49:36;11.20;91.50
42037;DHT22;30340;52.004;5.908;2023-04-24T00:52:02;11.20;91.50
42037;DHT22;30340;52.004;5.908;2023-04-24T00:54:27;11.20;91.50
42037;DHT22;30340;52.004;5.908;2023-04-24T00:56:53;11.20;91.50
42037;DHT22;30340;52.004;5.908;2023-04-24T00:59:18;11.20;91.50
42037;DHT22;30340;52.004;5.908;2023-04-24T01:01:45;11.10;91.50
42037;DHT22;30340;52.004;5.908;2023-04-24T01:04:11;11.20;91.60
42037;DHT22;30340;52.004;5.908;2023-04-24T01:06:39;11.20;91.60
42037;DHT22;30340;52.004;5.908;2023-04-24T01:09:05;11.20;91.70
42037;DHT22;30340;52.004;5.908;2023-04-24T01:11:30;11.10;91.70
42037;DHT22;30340;52.004;5.908;2023-04-24T01:13:56;11.20;91.80
42037;DHT22;30340;52.004;5.908;2023-04-24T01:16:23;11.20;91.80
42037;DHT22;30340;52.004;5.908;2023-04-24T01:18:49;11.20;91.80
42037;DHT22;30340;52.004;5.908;2023-04-24T01:21:15;11.20;91.80
42037;DHT22;30340;52.004;5.908;2023-04-24T01:23:45;11.10;91.80
42037;DHT22;30340;52.004;5.908;2023-04-24T01:26:15;11.20;91.90
42037;DHT22;30340;52.004;5.908;2023-04-24T01:28:41;11.10;91.90
42037;DHT22;30340;52.004;5.908;2023-04-24T01:31:07;11.10;92.00
42037;DHT22;30340;52.004;5.908;2023-04-24T01:33:33;11.10;92.00
42037;DHT22;30340;52.004;5.908;2023-04-24T01:35:58;11.10;92.00
42037;DHT22;30340;52.004;5.908;2023-04-24T01:38:25;11.10;92.00
42037;DHT22;30340;52.004;5.908;2023-04-24T01:40:51;11.10;92.10
42037;DHT22;30340;52.004;5.908;2023-04-24T01:43:17;11.10;92.10
42037;DHT22;30340;52.004;5.908;2023-04-24T01:45:43;11.10;92.10
42037;DHT22;30340;52.004;5.908;2023-04-24T01:48:09;11.10;92.10
42037;DHT22;30340;52.004;5.908;2023-04-24T01:50:34;11.10;92.10
42037;DHT22;30340;52.004;5.908;2023-04-24T01:53:00;11.10;92.10
42037;DHT22;30340;52.004;5.908;2023-04-24T01:55:26;11.00;92.10
42037;DHT22;30340;52.004;5.908;2023-04-24T01:57:52;11.00;92.10
42037;DHT22;30340;52.004;5.908;2023-04-24T02:00:21;11.00;92.20
42037;DHT22;30340;52.004;5.908;2023-04-24T02:02:47;11.00;92.20
42037;DHT22;30340;52.004;5.908;2023-04-24T02:05:12;11.00;92.20
42037;DHT22;30340;52.004;5.908;2023-04-24T02:07:38;11.00;92.20
42037;DHT22;30340;52.004;5.908;2023-04-24T02:10:04;11.00;92.20
42037;DHT22;30340;52.004;5.908;2023-04-24T02:12:30;11.10;92.30
42037;DHT22;30340;52.004;5.908;2023-04-24T02:14:55;11.10;92.30
42037;DHT22;30340;52.004;5.908;2023-04-24T02:17:21;11.10;92.30
42037;DHT22;30340;52.004;5.908;2023-04-24T02:19:46;11.10;92.40
42037;DHT22;30340;52.004;5.908;2023-04-24T02:22:12;11.10;92.40
42037;DHT22;30340;52.004;5.908;2023-04-24T02:24:38;11.10;92.40
42037;DHT22;30340;52.004;5.908;2023-04-24T02:27:04;11.20;92.40
42037;DHT22;30340;52.004;5.908;2023-04-24T02:29:30;11.20;92.30
42037;DHT22;30340;52.004;5.908;2023-04-24T02:31:55;11.30;92.60
42037;DHT22;30340;52.004;5.908;2023-04-24T02:34:21;11.30;92.20
42037;DHT22;30340;52.004;5.908;2023-04-24T02:36:46;11.30;92.10
42037;DHT22;30340;52.004;5.908;2023-04-24T02:39:12;11.30;92.10
42037;DHT22;30340;52.004;5.908;2023-04-24T02:41:38;11.30;92.10
42037;DHT22;30340;52.004;5.908;2023-04-24T02:44:04;11.30;92.00
42037;DHT22;30340;52.004;5.908;2023-04-24T02:46:29;11.30;92.10
42037;DHT22;30340;52.004;5.908;2023-04-24T02:48:55;11.20;92.20
42037;DHT22;30340;52.004;5.908;2023-04-24T02:51:20;11.20;92.20
42037;DHT22;30340;52.004;5.908;2023-04-24T02:53:46;11.10;92.20
42037;DHT22;30340;52.004;5.908;2023-04-24T02:56:12;11.10;92.40
42037;DHT22;30340;52.004;5.908;2023-04-24T02:58:38;11.00;92.40
42037;DHT22;30340;52.004;5.908;2023-04-24T03:01:04;11.10;92.50
42037;DHT22;30340;52.004;5.908;2023-04-24T03:03:30;11.10;92.50
42037;DHT22;30340;52.004;5.908;2023-04-24T03:05:55;11.10;92.50
42037;DHT22;30340;52.004;5.908;2023-04-24T03:08:22;11.10;92.50
42037;DHT22;30340;52.004;5.908;2023-04-24T03:10:48;11.00;92.50
42037;DHT22;30340;52.004;5.908;2023-04-24T03:13:13;11.00;92.60
42037;DHT22;30340;52.004;5.908;2023-04-24T03:15:39;11.00;92.70
42037;DHT22;30340;52.004;5.908;2023-04-24T03:18:04;10.90;92.70
42037;DHT22;30340;52.004;5.908;2023-04-24T03:20:30;10.90;92.80
42037;DHT22;30340;52.004;5.908;2023-04-24T03:22:55;10.90;92.80
42037;DHT22;30340;52.004;5.908;2023-04-24T03:25:22;10.90;92.80
42037;DHT22;30340;52.004;5.908;2023-04-24T03:27:47;10.90;92.80
42037;DHT22;30340;52.004;5.908;2023-04-24T03:30:13;11.00;92.80
42037;DHT22;30340;52.004;5.908;2023-04-24T03:32:39;11.00;92.70
42037;DHT22;30340;52.004;5.908;2023-04-24T03:35:06;11.00;92.70
42037;DHT22;30340;52.004;5.908;2023-04-24T03:37:32;11.00;92.70
42037;DHT22;30340;52.004;5.908;2023-04-24T03:39:58;11.00;92.80
42037;DHT22;30340;52.004;5.908;2023-04-24T03:42:23;10.90;92.90
42037;DHT22;30340;52.004;5.908;2023-04-24T03:44:49;10.90;93.00
42037;DHT22;30340;52.004;5.908;2023-04-24T03:47:15;10.90;93.10
42037;DHT22;30340;52.004;5.908;2023-04-24T03:49:40;10.90;93.10
42037;DHT22;30340;52.004;5.908;2023-04-24T03:52:06;10.90;93.00
42037;DHT22;30340;52.004;5.908;2023-04-24T03:54:31;10.90;93.00
42037;DHT22;30340;52.004;5.908;2023-04-24T03:56:57;10.90;93.00
42037;DHT22;30340;52.004;5.908;2023-04-24T03:59:22;10.90;93.00
42037;DHT22;30340;52.004;5.908;2023-04-24T04:01:48;10.90;93.00
42037;DHT22;30340;52.004;5.908;2023-04-24T04:04:13;10.90;93.00
42037;DHT22;30340;52.004;5.908;2023-04-24T04:06:39;11.00;92.90
42037;DHT22;30340;52.004;5.908;2023-04-24T04:09:05;10.90;92.80
42037;DHT22;30340;52.004;5.908;2023-04-24T04:11:30;10.90;92.80
42037;DHT22;30340;52.004;5.908;2023-04-24T04:13:56;10.90;92.80
42037;DHT22;30340;52.004;5.908;2023-04-24T04:16:22;10.80;92.80
42037;DHT22;30340;52.004;5.908;2023-04-24T04:18:48;10.80;92.90
42037;DHT22;30340;52.004;5.908;2023-04-24T04:21:14;10.80;92.90
42037;DHT22;30340;52.004;5.908;2023-04-24T04:23:39;10.70;92.80
42037;DHT22;30340;52.004;5.908;2023-04-24T04:26:05;10.70;92.90
42037;DHT22;30340;52.004;5.908;2023-04-24T04:28:31;10.70;92.90
42037;DHT22;30340;52.004;5.908;2023-04-24T04:30:57;10.60;92.90
42037;DHT22;30340;52.004;5.908;2023-04-24T04:33:24;10.60;92.90
42037;DHT22;30340;52.004;5.908;2023-04-24T04:35:50;10.50;92.90
42037;DHT22;30340;52.004;5.908;2023-04-24T04:38:17;10.50;93.10
42037;DHT22;30340;52.004;5.908;2023-04-24T04:40:44;10.40;93.10
42037;DHT22;30340;52.004;5.908;2023-04-24T04:43:09;10.40;93.10
42037;DHT22;30340;52.004;5.908;2023-04-24T04:45:39;10.40;93.10
42037;DHT22;30340;52.004;5.908;2023-04-24T04:48:06;10.30;93.20
42037;DHT22;30340;52.004;5.908;2023-04-24T04:50:37;10.30;93.30
42037;DHT22;30340;52.004;5.908;2023-04-24T04:53:03;10.40;93.20
42037;DHT22;30340;52.004;5.908;2023-04-24T04:55:28;10.40;93.20
42037;DHT22;30340;52.004;5.908;2023-04-24T04:57:54;10.40;93.20
42037;DHT22;30340;52.004;5.908;2023-04-24T05:00:21;10.40;93.10
42037;DHT22;30340;52.004;5.908;2023-04-24T05:02:47;10.50;93.20
42037;DHT22;30340;52.004;5.908;2023-04-24T05:05:13;10.50;93.20
42037;DHT22;30340;52.004;5.908;2023-04-24T05:07:38;10.40;93.00
42037;DHT22;30340;52.004;5.908;2023-04-24T05:10:04;10.40;93.10
42037;DHT22;30340;52.004;5.908;2023-04-24T05:12:30;10.40;93.20
42037;DHT22;30340;52.004;5.908;2023-04-24T05:14:55;10.30;93.30
42037;DHT22;30340;52.004;5.908;2023-04-24T05:17:21;10.30;93.30
42037;DHT22;30340;52.004;5.908;2023-04-24T05:19:46;10.30;93.40
42037;DHT22;30340;52.004;5.908;2023-04-24T05:22:13;10.30;93.40
42037;DHT22;30340;52.004;5.908;2023-04-24T05:24:38;10.40;93.40
42037;DHT22;30340;52.004;5.908;2023-04-24T05:27:04;10.40;93.30
42037;DHT22;30340;52.004;5.908;2023-04-24T05:29:30;10.30;93.40
42037;DHT22;30340;52.004;5.908;2023-04-24T05:31:57;10.40;93.40
42037;DHT22;30340;52.004;5.908;2023-04-24T05:34:22;10.40;93.40
42037;DHT22;30340;52.004;5.908;2023-04-24T05:36:48;10.50;93.30
42037;DHT22;30340;52.004;5.908;2023-04-24T05:39:14;10.50;93.30
42037;DHT22;30340;52.004;5.908;2023-04-24T05:41:40;10.60;93.20
42037;DHT22;30340;52.004;5.908;2023-04-24T05:44:06;10.60;93.20
42037;DHT22;30340;52.004;5.908;2023-04-24T05:46:31;10.60;93.10
42037;DHT22;30340;52.004;5.908;2023-04-24T05:48:57;10.70;93.00
42037;DHT22;30340;52.004;5.908;2023-04-24T05:51:23;10.80;92.90
42037;DHT22;30340;52.004;5.908;2023-04-24T05:53:48;10.80;92.90
42037;DHT22;30340;52.004;5.908;2023-04-24T05:56:14;10.80;92.80
42037;DHT22;30340;52.004;5.908;2023-04-24T05:58:40;10.90;92.80
42037;DHT22;30340;52.004;5.908;2023-04-24T06:01:06;10.90;92.70
42037;DHT22;30340;52.004;5.908;2023-04-24T06:03:32;10.90;92.60
42037;DHT22;30340;52.004;5.908;2023-04-24T06:05:58;11.00;92.60
42037;DHT22;30340;52.004;5.908;2023-04-24T06:08:23;11.00;92.50
42037;DHT22;30340;52.004;5.908;2023-04-24T06:10:49;11.00;92.40
42037;DHT22;30340;52.004;5.908;2023-04-24T06:13:15;11.10;92.30
42037;DHT22;30340;52.004;5.908;2023-04-24T06:15:40;11.10;92.20
42037;DHT22;30340;52.004;5.908;2023-04-24T06:18:06;11.10;92.20
42037;DHT22;30340;52.004;5.908;2023-04-24T06:20:31;11.10;92.20
42037;DHT22;30340;52.004;5.908;2023-04-24T06:22:57;11.10;92.20
42037;DHT22;30340;52.004;5.908;2023-04-24T06:25:25;11.10;92.10
42037;DHT22;30340;52.004;5.908;2023-04-24T06:27:52;11.10;92.10
42037;DHT22;30340;52.004;5.908;2023-04-24T06:30:17;11.20;92.10
42037;DHT22;30340;52.004;5.908;2023-04-24T06:32:43;11.20;92.10
42037;DHT22;30340;52.004;5.908;2023-04-24T06:35:08;11.30;92.00
42037;DHT22;30340;52.004;5.908;2023-04-24T06:37:35;11.30;91.90
42037;DHT22;30340;52.004;5.908;2023-04-24T06:40:01;11.30;91.90
42037;DHT22;30340;52.004;5.908;2023-04-24T06:42:26;11.30;91.80
42037;DHT22;30340;52.004;5.908;2023-04-24T06:44:53;11.40;91.80
42037;DHT22;30340;52.004;5.908;2023-04-24T06:47:19;11.40;91.80
42037;DHT22;30340;52.004;5.908;2023-04-24T06:49:44;11.50;91.70
42037;DHT22;30340;52.004;5.908;2023-04-24T06:52:10;11.50;91.60
42037;DHT22;30340;52.004;5.908;2023-04-24T06:54:35;11.40;91.60
42037;DHT22;30340;52.004;5.908;2023-04-24T06:57:01;11.40;91.60
42037;DHT22;30340;52.004;5.908;2023-04-24T06:59:28;11.40;91.60
42037;DHT22;30340;52.004;5.908;2023-04-24T07:01:54;11.50;91.90
42037;DHT22;30340;52.004;5.908;2023-04-24T07:04:20;11.40;91.50
42037;DHT22;30340;52.004;5.908;2023-04-24T07:06:46;11.40;91.50
42037;DHT22;30340;52.004;5.908;2023-04-24T07:09:12;11.40;91.40
42037;DHT22;30340;52.004;5.908;2023-04-24T07:11:39;11.40;91.50
42037;DHT22;30340;52.004;5.908;2023-04-24T07:14:06;11.40;91.50
42037;DHT22;30340;52.004;5.908;2023-04-24T07:16:31;11.40;91.50
42037;DHT22;30340;52.004;5.908;2023-04-24T07:18:57;11.40;91.50
42037;DHT22;30340;52.004;5.908;2023-04-24T07:21:22;11.40;91.50
42037;DHT22;30340;52.004;5.908;2023-04-24T07:23:48;11.40;91.50
42037;DHT22;30340;52.004;5.908;2023-04-24T07:26:13;11.30;91.50
42037;DHT22;30340;52.004;5.908;2023-04-24T07:28:40;11.30;91.50
42037;DHT22;30340;52.004;5.908;2023-04-24T07:31:06;11.30;91.50
42037;DHT22;30340;52.004;5.908;2023-04-24T07:33:32;11.20;91.60
42037;DHT22;30340;52.004;5.908;2023-04-24T07:35:58;11.20;91.60
42037;DHT22;30340;52.004;5.908;2023-04-24T07:38:23;11.10;91.70
42037;DHT22;30340;52.004;5.908;2023-04-24T07:40:51;11.10;91.80
42037;DHT22;30340;52.004;5.908;2023-04-24T07:43:16;11.00;91.80
42037;DHT22;30340;52.004;5.908;2023-04-24T07:45:42;11.00;91.90
42037;DHT22;30340;52.004;5.908;2023-04-24T07:48:08;10.80;91.90
42037;DHT22;30340;52.004;5.908;2023-04-24T07:50:34;10.80;92.10
42037;DHT22;30340;52.004;5.908;2023-04-24T07:53:01;10.70;92.20
42037;DHT22;30340;52.004;5.908;2023-04-24T07:55:27;10.60;92.30
42037;DHT22;30340;52.004;5.908;2023-04-24T07:57:53;10.60;92.40
42037;DHT22;30340;52.004;5.908;2023-04-24T08:00:18;10.50;92.40
42037;DHT22;30340;52.004;5.908;2023-04-24T08:02:44;10.50;92.40
42037;DHT22;30340;52.004;5.908;2023-04-24T08:05:09;10.40;92.30
42037;DHT22;30340;52.004;5.908;2023-04-24T08:07:35;10.30;92.30
42037;DHT22;30340;52.004;5.908;2023-04-24T08:10:01;10.20;92.60
42037;DHT22;30340;52.004;5.908;2023-04-24T08:12:28;10.20;92.40
42037;DHT22;30340;52.004;5.908;2023-04-24T08:14:54;10.20;92.50
42037;DHT22;30340;52.004;5.908;2023-04-24T08:17:20;10.20;92.40
42037;DHT22;30340;52.004;5.908;2023-04-24T08:19:46;10.20;92.40
42037;DHT22;30340;52.004;5.908;2023-04-24T08:22:14;10.20;92.40
42037;DHT22;30340;52.004;5.908;2023-04-24T08:24:39;10.20;92.30
42037;DHT22;30340;52.004;5.908;2023-04-24T08:27:05;10.20;92.40
42037;DHT22;30340;52.004;5.908;2023-04-24T08:29:31;10.20;92.40
42037;DHT22;30340;52.004;5.908;2023-04-24T08:31:57;10.20;92.40
42037;DHT22;30340;52.004;5.908;2023-04-24T08:34:22;10.20;92.40
42037;DHT22;30340;52.004;5.908;2023-04-24T08:36:48;10.20;92.40
42037;DHT22;30340;52.004;5.908;2023-04-24T08:39:14;10.20;92.40
42037;DHT22;30340;52.004;5.908;2023-04-24T08:41:42;10.20;92.50
42037;DHT22;30340;52.004;5.908;2023-04-24T08:44:11;10.10;92.50
42037;DHT22;30340;52.004;5.908;2023-04-24T08:46:38;10.20;92.60
42037;DHT22;30340;52.004;5.908;2023-04-24T08:49:05;10.20;92.50
42037;DHT22;30340;52.004;5.908;2023-04-24T08:51:31;10.20;92.60
42037;DHT22;30340;52.004;5.908;2023-04-24T08:53:57;10.20;92.60
42037;DHT22;30340;52.004;5.908;2023-04-24T08:56:23;10.20;92.60
42037;DHT22;30340;52.004;5.908;2023-04-24T08:58:53;10.20;92.50
42037;DHT22;30340;52.004;5.908;2023-04-24T09:01:20;10.30;92.50
42037;DHT22;30340;52.004;5.908;2023-04-24T09:03:48;10.20;92.40
42037;DHT22;30340;52.004;5.908;2023-04-24T09:06:15;10.20;92.50
42037;DHT22;30340;52.004;5.908;2023-04-24T09:08:42;10.20;92.50
42037;DHT22;30340;52.004;5.908;2023-04-24T09:11:09;10.20;92.60
42037;DHT22;30340;52.004;5.908;2023-04-24T09:13:36;10.20;92.50
42037;DHT22;30340;52.004;5.908;2023-04-24T09:16:02;10.10;92.50
42037;DHT22;30340;52.004;5.908;2023-04-24T09:18:28;10.10;92.40
42037;DHT22;30340;52.004;5.908;2023-04-24T09:23:23;10.00;92.40
42037;DHT22;30340;52.004;5.908;2023-04-24T09:25:54;10.00;92.40
42037;DHT22;30340;52.004;5.908;2023-04-24T09:28:25;10.00;92.30
42037;DHT22;30340;52.004;5.908;2023-04-24T09:33:29;10.10;92.30
42037;DHT22;30340;52.004;5.908;2023-04-24T09:35:55;10.10;92.20
42037;DHT22;30340;52.004;5.908;2023-04-24T09:38:34;10.10;92.30
42037;DHT22;30340;52.004;5.908;2023-04-24T09:41:06;10.20;92.20
42037;DHT22;30340;52.004;5.908;2023-04-24T09:43:32;10.20;92.00
42037;DHT22;30340;52.004;5.908;2023-04-24T09:46:00;10.30;91.90
42037;DHT22;30340;52.004;5.908;2023-04-24T09:48:33;10.30;91.80
42037;DHT22;30340;52.004;5.908;2023-04-24T09:51:00;10.40;91.60
42037;DHT22;30340;52.004;5.908;2023-04-24T09:53:27;10.30;91.10
42037;DHT22;30340;52.004;5.908;2023-04-24T09:55:53;10.30;91.00
42037;DHT22;30340;52.004;5.908;2023-04-24T09:58:25;10.40;90.90
42037;DHT22;30340;52.004;5.908;2023-04-24T10:00:53;10.50;90.70
42037;DHT22;30340;52.004;5.908;2023-04-24T10:03:19;10.70;90.70
42037;DHT22;30340;52.004;5.908;2023-04-24T10:05:46;10.80;90.50
42037;DHT22;30340;52.004;5.908;2023-04-24T10:08:12;10.80;90.40
42037;DHT22;30340;52.004;5.908;2023-04-24T10:10:43;10.80;90.20
42037;DHT22;30340;52.004;5.908;2023-04-24T10:13:09;10.80;90.10
42037;DHT22;30340;52.004;5.908;2023-04-24T10:15:36;10.90;89.90
42037;DHT22;30340;52.004;5.908;2023-04-24T10:18:02;11.10;89.60
42037;DHT22;30340;52.004;5.908;2023-04-24T10:20:30;11.20;89.10
42037;DHT22;30340;52.004;5.908;2023-04-24T10:22:57;11.30;88.30
42037;DHT22;30340;52.004;5.908;2023-04-24T10:25:28;11.50;88.20
42037;DHT22;30340;52.004;5.908;2023-04-24T10:27:54;11.70;87.50
42037;DHT22;30340;52.004;5.908;2023-04-24T10:30:26;11.90;87.00
42037;DHT22;30340;52.004;5.908;2023-04-24T10:32:52;12.10;86.70
42037;DHT22;30340;52.004;5.908;2023-04-24T10:35:18;12.20;86.40
42037;DHT22;30340;52.004;5.908;2023-04-24T10:37:50;12.20;85.90
42037;DHT22;30340;52.004;5.908;2023-04-24T10:40:25;12.10;85.10
42037;DHT22;30340;52.004;5.908;2023-04-24T10:42:52;12.00;85.10
42037;DHT22;30340;52.004;5.908;2023-04-24T10:45:21;11.90;85.20
42037;DHT22;30340;52.004;5.908;2023-04-24T10:47:56;11.80;84.50
42037;DHT22;30340;52.004;5.908;2023-04-24T10:50:22;11.70;84.50
42037;DHT22;30340;52.004;5.908;2023-04-24T10:52:48;11.60;84.30
42037;DHT22;30340;52.004;5.908;2023-04-24T10:55:16;11.70;84.40
42037;DHT22;30340;52.004;5.908;2023-04-24T10:58:04;11.70;84.20
42037;DHT22;30340;52.004;5.908;2023-04-24T11:00:30;11.70;83.70
42037;DHT22;30340;52.004;5.908;2023-04-24T11:02:56;11.70;83.50
42037;DHT22;30340;52.004;5.908;2023-04-24T11:05:41;11.70;81.60
42037;DHT22;30340;52.004;5.908;2023-04-24T11:08:16;11.70;81.60
42037;DHT22;30340;52.004;5.908;2023-04-24T11:10:47;11.80;81.20
42037;DHT22;30340;52.004;5.908;2023-04-24T11:13:22;11.80;81.40
42037;DHT22;30340;52.004;5.908;2023-04-24T11:21:32;11.40;80.60
42037;DHT22;30340;52.004;5.908;2023-04-24T11:23:58;11.40;81.20
42037;DHT22;30340;52.004;5.908;2023-04-24T11:26:24;11.60;81.50
42037;DHT22;30340;52.004;5.908;2023-04-24T11:29:06;11.70;80.80
42037;DHT22;30340;52.004;5.908;2023-04-24T11:31:39;11.80;80.00
42037;DHT22;30340;52.004;5.908;2023-04-24T11:34:11;11.90;79.70
42037;DHT22;30340;52.004;5.908;2023-04-24T11:36:37;11.90;79.10
42037;DHT22;30340;52.004;5.908;2023-04-24T11:39:03;11.90;78.60
42037;DHT22;30340;52.004;5.908;2023-04-24T11:41:29;11.90;78.60
42037;DHT22;30340;52.004;5.908;2023-04-24T11:43:55;11.90;78.40
42037;DHT22;30340;52.004;5.908;2023-04-24T11:46:21;12.00;78.30
42037;DHT22;30340;52.004;5.908;2023-04-24T11:48:47;12.00;78.10
42037;DHT22;30340;52.004;5.908;2023-04-24T11:51:14;12.00;77.80
42037;DHT22;30340;52.004;5.908;2023-04-24T11:53:40;12.00;77.50
42037;DHT22;30340;52.004;5.908;2023-04-24T11:56:05;12.00;77.20
42037;DHT22;30340;52.004;5.908;2023-04-24T11:58:39;11.80;76.40
42037;DHT22;30340;52.004;5.908;2023-04-24T12:01:04;11.70;76.70
42037;DHT22;30340;52.004;5.908;2023-04-24T12:03:31;11.60;76.80
42037;DHT22;30340;52.004;5.908;2023-04-24T12:06:07;11.50;76.80
42037;DHT22;30340;52.004;5.908;2023-04-24T12:08:33;11.40;77.20
42037;DHT22;30340;52.004;5.908;2023-04-24T12:11:01;11.30;77.80
42037;DHT22;30340;52.004;5.908;2023-04-24T12:13:27;11.10;78.50
42037;DHT22;30340;52.004;5.908;2023-04-24T12:15:52;11.10;79.20
42037;DHT22;30340;52.004;5.908;2023-04-24T12:18:18;11.10;79.90
42037;DHT22;30340;52.004;5.908;2023-04-24T12:20:43;11.10;80.50
42037;DHT22;30340;52.004;5.908;2023-04-24T12:23:09;11.30;80.70
42037;DHT22;30340;52.004;5.908;2023-04-24T12:25:35;11.50;81.30
42037;DHT22;30340;52.004;5.908;2023-04-24T12:30:29;11.80;80.50
42037;DHT22;30340;52.004;5.908;2023-04-24T12:32:58;12.00;80.20
42037;DHT22;30340;52.004;5.908;2023-04-24T12:35:25;12.10;79.70
42037;DHT22;30340;52.004;5.908;2023-04-24T12:37:51;12.20;79.00
42037;DHT22;30340;52.004;5.908;2023-04-24T12:40:18;12.30;78.80
42037;DHT22;30340;52.004;5.908;2023-04-24T12:42:45;12.40;77.60
42037;DHT22;30340;52.004;5.908;2023-04-24T12:45:12;12.40;76.50
42037;DHT22;30340;52.004;5.908;2023-04-24T12:47:38;12.40;76.70
42037;DHT22;30340;52.004;5.908;2023-04-24T12:50:05;12.50;76.40
42037;DHT22;30340;52.004;5.908;2023-04-24T12:52:31;12.50;75.70
42037;DHT22;30340;52.004;5.908;2023-04-24T12:54:58;12.40;75.40
42037;DHT22;30340;52.004;5.908;2023-04-24T12:57:25;12.40;75.30
42037;DHT22;30340;52.004;5.908;2023-04-24T12:59:54;12.30;75.00
42037;DHT22;30340;52.004;5.908;2023-04-24T13:02:20;12.10;75.00
42037;DHT22;30340;52.004;5.908;2023-04-24T13:04:47;12.00;74.50
42037;DHT22;30340;52.004;5.908;2023-04-24T13:07:13;12.10;74.60
42037;DHT22;30340;52.004;5.908;2023-04-24T13:09:40;12.20;74.40
42037;DHT22;30340;52.004;5.908;2023-04-24T13:12:06;12.30;74.20
42037;DHT22;30340;52.004;5.908;2023-04-24T13:14:33;12.40;73.80
42037;DHT22;30340;52.004;5.908;2023-04-24T13:16:58;12.50;73.20
42037;DHT22;30340;52.004;5.908;2023-04-24T13:19:27;12.60;72.00
42037;DHT22;30340;52.004;5.908;2023-04-24T13:21:56;12.60;71.90
42037;DHT22;30340;52.004;5.908;2023-04-24T13:24:25;12.60;71.70
42037;DHT22;30340;52.004;5.908;2023-04-24T13:26:52;12.40;72.20
42037;DHT22;30340;52.004;5.908;2023-04-24T13:29:17;12.40;73.60
42037;DHT22;30340;52.004;5.908;2023-04-24T13:31:43;12.30;73.10
42037;DHT22;30340;52.004;5.908;2023-04-24T13:34:09;12.20;72.50
42037;DHT22;30340;52.004;5.908;2023-04-24T13:36:34;12.00;72.80
42037;DHT22;30340;52.004;5.908;2023-04-24T13:39:00;11.90;72.50
42037;DHT22;30340;52.004;5.908;2023-04-24T13:41:26;11.80;72.60
42037;DHT22;30340;52.004;5.908;2023-04-24T13:43:51;11.80;72.80
42037;DHT22;30340;52.004;5.908;2023-04-24T13:46:17;11.80;73.10
42037;DHT22;30340;52.004;5.908;2023-04-24T13:48:43;11.80;73.30
42037;DHT22;30340;52.004;5.908;2023-04-24T13:51:08;11.80;73.30
42037;DHT22;30340;52.004;5.908;2023-04-24T13:53:34;11.70;73.30
42037;DHT22;30340;52.004;5.908;2023-04-24T13:56:03;11.70;73.50
42037;DHT22;30340;52.004;5.908;2023-04-24T13:58:29;11.60;73.80
42037;DHT22;30340;52.004;5.908;2023-04-24T14:00:55;11.60;74.60
42037;DHT22;30340;52.004;5.908;2023-04-24T14:03:20;11.50;75.30
42037;DHT22;30340;52.004;5.908;2023-04-24T14:05:46;11.60;75.90
42037;DHT22;30340;52.004;5.908;2023-04-24T14:08:11;11.80;76.30
42037;DHT22;30340;52.004;5.908;2023-04-24T14:10:37;11.90;76.30
42037;DHT22;30340;52.004;5.908;2023-04-24T14:13:03;12.10;76.00
42037;DHT22;30340;52.004;5.908;2023-04-24T14:15:28;12.10;74.60
42037;DHT22;30340;52.004;5.908;2023-04-24T14:17:54;12.00;73.70
42037;DHT22;30340;52.004;5.908;2023-04-24T14:20:20;12.10;73.50
42037;DHT22;30340;52.004;5.908;2023-04-24T14:22:45;12.10;72.20
42037;DHT22;30340;52.004;5.908;2023-04-24T14:25:11;12.00;71.30
42037;DHT22;30340;52.004;5.908;2023-04-24T14:27:37;12.10;71.20
42037;DHT22;30340;52.004;5.908;2023-04-24T14:30:03;12.10;71.00
42037;DHT22;30340;52.004;5.908;2023-04-24T14:32:29;12.20;71.20
42037;DHT22;30340;52.004;5.908;2023-04-24T14:34:55;12.30;71.00
42037;DHT22;30340;52.004;5.908;2023-04-24T14:37:20;12.20;70.40
42037;DHT22;30340;52.004;5.908;2023-04-24T14:39:46;12.20;70.10
42037;DHT22;30340;52.004;5.908;2023-04-24T14:42:11;12.20;70.10
42037;DHT22;30340;52.004;5.908;2023-04-24T14:44:37;12.10;69.80
42037;DHT22;30340;52.004;5.908;2023-04-24T14:47:03;12.10;69.80
42037;DHT22;30340;52.004;5.908;2023-04-24T14:49:28;12.00;70.00
42037;DHT22;30340;52.004;5.908;2023-04-24T14:51:54;12.00;69.60
42037;DHT22;30340;52.004;5.908;2023-04-24T14:54:19;12.00;69.80
42037;DHT22;30340;52.004;5.908;2023-04-24T14:56:48;12.10;68.80
42037;DHT22;30340;52.004;5.908;2023-04-24T14:59:14;12.10;67.90
42037;DHT22;30340;52.004;5.908;2023-04-24T15:01:40;12.10;67.20
42037;DHT22;30340;52.004;5.908;2023-04-24T15:04:05;12.20;67.00
42037;DHT22;30340;52.004;5.908;2023-04-24T15:06:31;12.20;66.60
42037;DHT22;30340;52.004;5.908;2023-04-24T15:08:58;12.20;66.00
42037;DHT22;30340;52.004;5.908;2023-04-24T15:11:24;12.40;66.40
42037;DHT22;30340;52.004;5.908;2023-04-24T15:13:49;12.40;65.70
42037;DHT22;30340;52.004;5.908;2023-04-24T15:16:15;12.40;65.10
42037;DHT22;30340;52.004;5.908;2023-04-24T15:18:41;12.50;65.50
42037;DHT22;30340;52.004;5.908;2023-04-24T15:21:07;12.50;65.60
42037;DHT22;30340;52.004;5.908;2023-04-24T15:23:32;12.50;65.60
42037;DHT22;30340;52.004;5.908;2023-04-24T15:25:58;12.50;65.70
42037;DHT22;30340;52.004;5.908;2023-04-24T15:28:25;12.50;65.60
42037;DHT22;30340;52.004;5.908;2023-04-24T15:30:50;12.50;65.60
42037;DHT22;30340;52.004;5.908;2023-04-24T15:33:16;12.40;65.00
42037;DHT22;30340;52.004;5.908;2023-04-24T15:35:41;12.50;65.30
42037;DHT22;30340;52.004;5.908;2023-04-24T15:38:07;12.50;65.40